Time;durP1;ratioP1;P1;durP2;ratioP2;P2;SDS_P1;SDS_P2;PMS_P1;PMS_P2;Temp;Humidity;BMP_temperature;BMP_pressure;BME280_temperature;BME280_humidity;BME280_pressure;Samples;Min_cycle;Max_cycle;Signal;HPM_P1;HPM_P2
2021/10/04 00:02:27;;;;;;;;;;;;;;;16.65;58.98;96578.59;4935281;29;19927;-77
2021/10/04 00:04:54;;;;;;;;;;;;;;;16.64;59.16;96587.53;4935395;29;19969;-76
2021/10/04 00:07:22;;;;;;;;;;;;;;;16.64;59.26;96588.34;4935642;29;19927;-76
2021/10/04 00:09:49;;;;;;;;;;;;;;;16.65;59.09;96595.19;4934996;29;19927;-76
2021/10/04 00:12:16;;;;;;;;;;;;;;;16.66;59.14;96593.38;4935388;29;19934;-76
2021/10/04 00:14:45;;;;;;;;;;;;;;;16.65;58.88;96597.84;4935205;29;20272;-76
2021/10/04 00:17:13;;;;;;;;;;;;;;;16.65;58.75;96608.38;4935249;29;19943;-76
2021/10/04 00:19:40;;;;;;;;;;;;;;;16.65;58.50;96603.09;4966794;23;19926;-78
2021/10/04 00:22:08;;;;;;;;;;;;;;;16.63;58.80;96607.78;4980737;28;19933;-79
2021/10/04 00:24:35;;;;;;;;;;;;;;;16.60;58.64;96604.81;4980837;28;19938;-78
2021/10/04 00:27:03;;;;;;;;;;;;;;;16.59;58.66;96605.81;4981119;28;20468;-80
2021/10/04 00:29:30;;;;;;;;;;;;;;;16.55;58.49;96613.38;4980285;28;19926;-78
2021/10/04 00:31:59;;;;;;;;;;;;;;;16.54;58.88;96610.94;4980998;28;19930;-78
2021/10/04 00:34:26;;;;;;;;;;;;;;;16.52;58.74;96613.78;4981467;28;19933;-80
2021/10/04 00:36:54;;;;;;;;;;;;;;;16.51;58.99;96606.91;4981235;28;19926;-78
2021/10/04 00:39:21;;;;;;;;;;;;;;;16.51;58.98;96596.38;4981742;28;19933;-77
2021/10/04 00:41:49;;;;;;;;;;;;;;;16.50;59.08;96594.75;4981450;28;19927;-80
2021/10/04 00:44:16;;;;;;;;;;;;;;;16.49;59.14;96598.44;4981752;28;19926;-79
2021/10/04 00:46:44;;;;;;;;;;;;;;;16.47;59.46;96611.00;4979349;28;19926;-79
2021/10/04 00:49:12;;;;;;;;;;;;;;;16.45;59.55;96605.16;4979425;28;20026;-77
2021/10/04 00:51:40;;;;;;;;;;;;;;;16.44;59.51;96617.53;4980553;28;19934;-78
2021/10/04 00:54:07;;;;;;;;;;;;;;;16.45;59.53;96611.22;4978715;28;20425;-76
2021/10/04 00:56:35;;;;;;;;;;;;;;;16.46;59.42;96619.91;4980951;28;19926;-77
2021/10/04 00:59:03;;;;;;;;;;;;;;;16.48;59.64;96617.88;4982692;28;19933;-76
2021/10/04 01:01:30;;;;;;;;;;;;;;;16.44;59.47;96622.78;4981894;28;20010;-78
2021/10/04 01:03:59;;;;;;;;;;;;;;;16.44;59.67;96620.16;4982588;28;19926;-79
2021/10/04 01:06:28;;;;;;;;;;;;;;;16.44;59.68;96619.31;4983434;28;19933;-77
2021/10/04 01:08:56;;;;;;;;;;;;;;;16.46;59.66;96610.22;4982471;28;20310;-77
2021/10/04 01:11:24;;;;;;;;;;;;;;;16.47;59.46;96611.00;4982541;28;19943;-78
2021/10/04 01:13:52;;;;;;;;;;;;;;;16.46;59.48;96615.47;4982236;28;19926;-78
2021/10/04 01:16:20;;;;;;;;;;;;;;;16.45;59.36;96613.84;4982321;28;19949;-78
2021/10/04 01:18:48;;;;;;;;;;;;;;;16.43;59.46;96615.09;4984224;28;19941;-79
2021/10/04 01:21:16;;;;;;;;;;;;;;;16.43;59.36;96618.53;4982248;28;19926;-77
2021/10/04 01:23:44;;;;;;;;;;;;;;;16.42;59.35;96616.94;4981113;28;20211;-78
2021/10/04 01:26:12;;;;;;;;;;;;;;;16.42;59.24;96614.31;4981824;28;20006;-78
2021/10/04 01:28:39;;;;;;;;;;;;;;;16.41;59.20;96611.88;4982563;28;19926;-76
2021/10/04 01:31:07;;;;;;;;;;;;;;;16.38;59.11;96607.06;4982291;28;19926;-76
2021/10/04 01:33:34;;;;;;;;;;;;;;;16.36;58.90;96603.84;4982342;28;19989;-76
2021/10/04 01:36:02;;;;;;;;;;;;;;;16.34;59.08;96605.88;4982882;28;19930;-78
2021/10/04 01:38:30;;;;;;;;;;;;;;;16.32;59.00;96613.19;4983613;28;19926;-77
2021/10/04 01:40:58;;;;;;;;;;;;;;;16.31;58.94;96617.66;4983459;28;19926;-78
2021/10/04 01:43:25;;;;;;;;;;;;;;;16.30;58.82;96610.78;4981455;28;19933;-78
2021/10/04 01:45:53;;;;;;;;;;;;;;;16.27;58.62;96596.22;4981746;28;19926;-76
2021/10/04 01:48:20;;;;;;;;;;;;;;;16.27;58.66;96598.06;4982519;28;19933;-78
2021/10/04 01:50:47;;;;;;;;;;;;;;;16.25;58.56;96593.00;4980978;28;19941;-77
2021/10/04 01:53:15;;;;;;;;;;;;;;;16.22;58.34;96596.06;4981054;28;20409;-78
2021/10/04 01:55:43;;;;;;;;;;;;;;;16.18;58.52;96602.78;4981050;28;19933;-78
2021/10/04 01:58:11;;;;;;;;;;;;;;;16.15;58.89;96605.84;4981902;28;19926;-77
2021/10/04 02:00:38;;;;;;;;;;;;;;;16.13;58.67;96613.16;4981835;28;19926;-79
2021/10/04 02:03:06;;;;;;;;;;;;;;;16.13;59.01;96614.97;4983101;28;19926;-78
2021/10/04 02:05:34;;;;;;;;;;;;;;;16.12;59.13;96608.13;4982360;28;19926;-78
2021/10/04 02:08:01;;;;;;;;;;;;;;;16.13;59.12;96609.72;4981966;28;19926;-78
2021/10/04 02:10:30;;;;;;;;;;;;;;;16.13;58.99;96605.25;4981767;28;20320;-78
2021/10/04 02:13:00;;;;;;;;;;;;;;;16.15;58.94;96603.22;4981627;28;19949;-77
2021/10/04 02:15:28;;;;;;;;;;;;;;;16.14;58.83;96621.88;4982078;28;19926;-77
2021/10/04 02:17:56;;;;;;;;;;;;;;;16.13;58.93;96625.50;4980433;28;20417;-79
2021/10/04 02:20:26;;;;;;;;;;;;;;;16.12;58.57;96645.75;4979552;28;19937;-76
2021/10/04 02:22:53;;;;;;;;;;;;;;;16.13;58.68;96636.81;4982930;28;19945;-77
2021/10/04 02:25:22;;;;;;;;;;;;;;;16.13;58.56;96639.47;4980588;28;19926;-79
2021/10/04 02:27:49;;;;;;;;;;;;;;;16.13;58.45;96643.94;4982421;28;19926;-77
2021/10/04 02:30:19;;;;;;;;;;;;;;;16.12;58.63;96634.44;4980176;28;19937;-81
2021/10/04 02:32:47;;;;;;;;;;;;;;;16.10;58.41;96636.47;4979646;28;19933;-78
2021/10/04 02:35:14;;;;;;;;;;;;;;;16.08;58.61;96644.56;4979696;28;19930;-77
2021/10/04 02:37:41;;;;;;;;;;;;;;;16.05;58.69;96643.19;4979931;28;19926;-77
2021/10/04 02:40:10;;;;;;;;;;;;;;;16.04;58.71;96646.81;4979001;28;19926;-76
2021/10/04 02:42:38;;;;;;;;;;;;;;;16.03;58.88;96647.06;4982061;28;19945;-77
2021/10/04 02:45:06;;;;;;;;;;;;;;;16.01;58.83;96649.88;4989333;28;19933;-77
2021/10/04 02:47:35;;;;;;;;;;;;;;;15.98;58.94;96650.34;4991322;28;20398;-76
2021/10/04 02:50:02;;;;;;;;;;;;;;;15.94;59.20;96662.31;4984616;28;19926;-76
2021/10/04 02:52:30;;;;;;;;;;;;;;;15.91;59.22;96649.56;4980651;28;19933;-76
2021/10/04 02:54:57;;;;;;;;;;;;;;;15.86;59.28;96657.28;4979740;28;20313;-78
2021/10/04 02:57:24;;;;;;;;;;;;;;;15.84;59.40;96661.97;4989337;28;19934;-76
2021/10/04 02:59:54;;;;;;;;;;;;;;;15.80;59.61;96653.69;4984234;28;19930;-79
2021/10/04 03:02:23;;;;;;;;;;;;;;;15.78;59.82;96647.81;4979927;28;19933;-76
2021/10/04 03:04:52;;;;;;;;;;;;;;;15.77;59.81;96642.81;4980137;28;19926;-77
2021/10/04 03:07:19;;;;;;;;;;;;;;;15.73;60.13;96649.50;4978448;28;19926;-78
2021/10/04 03:09:46;;;;;;;;;;;;;;;15.69;60.38;96656.97;4978088;28;19926;-78
2021/10/04 03:12:14;;;;;;;;;;;;;;;15.67;60.15;96656.38;4978039;28;19949;-76
2021/10/04 03:14:41;;;;;;;;;;;;;;;15.64;59.94;96659.44;4979436;28;19980;-77
2021/10/04 03:17:09;;;;;;;;;;;;;;;15.58;60.00;96649.75;4978939;28;19926;-77
2021/10/04 03:19:36;;;;;;;;;;;;;;;15.56;60.35;96639.44;4978000;28;19933;-79
2021/10/04 03:22:05;;;;;;;;;;;;;;;15.57;60.28;96638.44;4977760;28;19933;-78
2021/10/04 03:24:33;;;;;;;;;;;;;;;15.54;60.32;96644.09;4977609;28;19926;-77
2021/10/04 03:27:00;;;;;;;;;;;;;;;15.51;60.63;96660.31;4979766;28;19941;-79
2021/10/04 03:29:27;;;;;;;;;;;;;;;15.48;60.82;96660.75;4979054;28;19926;-78
2021/10/04 03:31:55;;;;;;;;;;;;;;;15.45;60.86;96671.66;4978592;28;19941;-78
2021/10/04 03:34:23;;;;;;;;;;;;;;;15.42;60.96;96680.78;4978271;28;19934;-76
2021/10/04 03:36:50;;;;;;;;;;;;;;;15.42;61.12;96672.09;4978570;28;19926;-77
2021/10/04 03:39:19;;;;;;;;;;;;;;;15.40;60.86;96664.41;4979331;28;20401;-78
2021/10/04 03:41:46;;;;;;;;;;;;;;;15.39;61.16;96664.63;4978689;28;20393;-78
2021/10/04 03:44:13;;;;;;;;;;;;;;;15.37;60.94;96669.28;4978889;28;19927;-77
2021/10/04 03:46:41;;;;;;;;;;;;;;;15.38;61.11;96663.03;4979198;28;19948;-77
2021/10/04 03:49:08;;;;;;;;;;;;;;;15.36;61.15;96672.94;4977863;28;19927;-80
2021/10/04 03:51:36;;;;;;;;;;;;;;;15.36;61.12;96686.06;4978356;28;19937;-77
2021/10/04 03:54:03;;;;;;;;;;;;;;;15.34;61.49;96677.59;4978387;28;20021;-79
2021/10/04 03:56:32;;;;;;;;;;;;;;;15.32;61.45;96680.44;4979225;28;19973;-77
2021/10/04 03:58:59;;;;;;;;;;;;;;;15.32;61.17;96682.25;4980209;28;19933;-79
2021/10/04 04:01:27;;;;;;;;;;;;;;;15.32;61.24;96682.25;4979635;28;19930;-80
2021/10/04 04:03:54;;;;;;;;;;;;;;;15.34;61.17;96688.13;4979098;28;19926;-80
2021/10/04 04:06:22;;;;;;;;;;;;;;;15.33;61.41;96686.50;4979562;28;19926;-79
2021/10/04 04:08:49;;;;;;;;;;;;;;;15.32;61.17;96683.06;4977396;28;20346;-78
2021/10/04 04:11:16;;;;;;;;;;;;;;;15.32;61.27;96687.50;4977947;28;20390;-78
2021/10/04 04:13:45;;;;;;;;;;;;;;;15.31;61.50;96684.09;4979297;28;20009;-81
2021/10/04 04:16:13;;;;;;;;;;;;;;;15.28;61.60;96676.59;4977992;28;19926;-78
2021/10/04 04:18:40;;;;;;;;;;;;;;;15.23;62.05;96685.13;4978206;28;19926;-80
2021/10/04 04:21:09;;;;;;;;;;;;;;;15.21;62.02;96691.59;4980841;28;19926;-82
2021/10/04 04:23:37;;;;;;;;;;;;;;;15.19;62.04;96704.13;4981880;28;19974;-79
2021/10/04 04:26:05;;;;;;;;;;;;;;;15.17;62.42;96709.59;4981903;28;19926;-78
2021/10/04 04:28:33;;;;;;;;;;;;;;;15.13;62.23;96705.78;4981421;28;19933;-78
2021/10/04 04:31:02;;;;;;;;;;;;;;;15.12;62.52;96704.16;4979121;28;19926;-79
2021/10/04 04:33:29;;;;;;;;;;;;;;;15.09;62.14;96696.72;4985370;28;19926;-81
2021/10/04 04:35:56;;;;;;;;;;;;;;;15.09;62.37;96703.78;4983561;28;19954;-83
2021/10/04 04:38:24;;;;;;;;;;;;;;;15.08;62.24;96702.16;4984650;28;20408;-79
2021/10/04 04:40:51;;;;;;;;;;;;;;;15.06;62.12;96689.22;4985496;28;19933;-84
2021/10/04 04:43:19;;;;;;;;;;;;;;;15.01;62.15;96686.41;4985272;28;20301;-78
2021/10/04 04:45:46;;;;;;;;;;;;;;;14.96;62.05;96678.38;4986266;28;20420;-81
2021/10/04 04:48:15;;;;;;;;;;;;;;;14.92;62.31;96692.94;4988290;28;19973;-80
2021/10/04 04:50:42;;;;;;;;;;;;;;;14.87;62.31;96697.97;4988692;28;19933;-84
2021/10/04 04:53:09;;;;;;;;;;;;;;;14.83;62.55;96715.97;4987449;28;19933;-78
2021/10/04 04:55:37;;;;;;;;;;;;;;;14.80;62.41;96711.13;4988015;28;19926;-81
2021/10/04 04:58:06;;;;;;;;;;;;;;;14.79;62.61;96715.56;4986922;28;19926;-80
2021/10/04 05:00:33;;;;;;;;;;;;;;;14.76;62.65;96716.00;4986517;28;19926;-84
2021/10/04 05:03:01;;;;;;;;;;;;;;;14.74;62.57;96718.00;4987068;28;19955;-80
2021/10/04 05:05:30;;;;;;;;;;;;;;;14.70;63.21;96716.00;4979885;28;19927;-77
2021/10/04 05:07:57;;;;;;;;;;;;;;;14.66;62.82;96715.59;4978509;28;19926;-77
2021/10/04 05:10:25;;;;;;;;;;;;;;;14.64;62.90;96712.38;4980397;28;20390;-78
2021/10/04 05:12:52;;;;;;;;;;;;;;;14.59;63.31;96712.19;4982612;28;19926;-77
2021/10/04 05:15:20;;;;;;;;;;;;;;;14.54;63.34;96722.44;4982078;28;20365;-77
2021/10/04 05:17:47;;;;;;;;;;;;;;;14.48;63.67;96724.06;4982059;28;19933;-77
2021/10/04 05:20:14;;;;;;;;;;;;;;;14.42;63.64;96730.13;4984064;28;19926;-79
2021/10/04 05:22:43;;;;;;;;;;;;;;;14.38;63.96;96723.66;4989102;28;19926;-78
2021/10/04 05:25:11;;;;;;;;;;;;;;;14.36;64.01;96723.84;4987388;28;19946;-76
2021/10/04 05:27:39;;;;;;;;;;;;;;;14.36;64.19;96725.69;4983311;28;19926;-77
2021/10/04 05:30:07;;;;;;;;;;;;;;;14.33;63.98;96721.66;4986144;28;19936;-79
2021/10/04 05:32:35;;;;;;;;;;;;;;;14.30;64.41;96729.94;4989074;28;19933;-78
2021/10/04 05:35:03;;;;;;;;;;;;;;;14.30;64.51;96722.06;4988301;28;19926;-83
2021/10/04 05:37:30;;;;;;;;;;;;;;;14.31;64.54;96739.41;4987891;28;19926;-79
2021/10/04 05:39:59;;;;;;;;;;;;;;;14.34;64.73;96743.44;4986206;28;19926;-78
2021/10/04 05:42:31;;;;;;;;;;;;;;;14.37;64.75;96751.72;4983545;28;19926;-77
2021/10/04 05:44:59;;;;;;;;;;;;;;;14.41;64.73;96754.78;4983099;28;19930;-77
2021/10/04 05:47:26;;;;;;;;;;;;;;;14.41;64.64;96755.56;4982724;28;19926;-77
2021/10/04 05:49:54;;;;;;;;;;;;;;;14.42;64.33;96746.69;4981750;28;19926;-79
2021/10/04 05:52:21;;;;;;;;;;;;;;;14.47;64.30;96755.75;4982030;28;19949;-78
2021/10/04 05:54:48;;;;;;;;;;;;;;;14.50;64.21;96765.88;4984787;28;19926;-77
2021/10/04 05:57:17;;;;;;;;;;;;;;;14.53;63.94;96762.84;4987507;28;19934;-81
2021/10/04 05:59:44;;;;;;;;;;;;;;;14.54;64.09;96757.38;4988549;28;19926;-82
2021/10/04 06:02:12;;;;;;;;;;;;;;;14.55;63.95;96761.66;4988576;28;19933;-79
2021/10/04 06:04:39;;;;;;;;;;;;;;;14.55;63.67;96752.97;4987122;28;19926;-79
2021/10/04 06:07:07;;;;;;;;;;;;;;;14.53;63.56;96758.38;4985538;28;19963;-79
2021/10/04 06:09:34;;;;;;;;;;;;;;;14.53;63.81;96763.63;4990377;28;19926;-80
2021/10/04 06:12:02;;;;;;;;;;;;;;;14.51;63.70;96765.66;4988560;28;20338;-78
2021/10/04 06:14:30;;;;;;;;;;;;;;;14.50;63.83;96771.94;4987198;28;19926;-79
2021/10/04 06:17:00;;;;;;;;;;;;;;;14.51;64.17;96780.59;4985894;28;19926;-78
2021/10/04 06:19:27;;;;;;;;;;;;;;;14.49;63.77;96788.66;4984334;28;19933;-77
2021/10/04 06:21:55;;;;;;;;;;;;;;;14.48;64.37;96796.75;4992974;23;19937;-80
2021/10/04 06:24:22;;;;;;;;;;;;;;;14.44;64.02;96812.09;4958835;29;19926;-79
2021/10/04 06:26:50;;;;;;;;;;;;;;;14.41;64.17;96808.06;4968931;28;20406;-78
2021/10/04 06:29:17;;;;;;;;;;;;;;;14.38;64.00;96813.69;4956380;29;19930;-79
2021/10/04 06:31:46;;;;;;;;;;;;;;;14.41;64.17;96807.25;4940720;29;19927;-79
2021/10/04 06:34:13;;;;;;;;;;;;;;;14.42;64.21;96814.13;4940213;29;19927;-80
2021/10/04 06:36:40;;;;;;;;;;;;;;;14.41;64.14;96821.19;4938565;29;20343;-80
2021/10/04 06:39:08;;;;;;;;;;;;;;;14.39;64.49;96820.56;4939779;29;19934;-78
2021/10/04 06:41:40;;;;;;;;;;;;;;;14.38;64.41;96826.81;4947994;29;19927;-80
2021/10/04 06:44:08;;;;;;;;;;;;;;;14.38;64.51;96834.69;4943198;29;20310;-79
2021/10/04 06:46:58;;;;;;;;;;;;;;;14.39;64.53;96833.69;4947613;29;19927;-80
2021/10/04 06:49:30;;;;;;;;;;;;;;;14.38;64.41;96833.88;4954544;29;19927;-80
2021/10/04 06:51:58;;;;;;;;;;;;;;;14.36;64.23;96834.06;4954556;29;19994;-80
2021/10/04 06:54:25;;;;;;;;;;;;;;;14.33;64.66;96828.44;4949959;29;19933;-80
2021/10/04 06:56:53;;;;;;;;;;;;;;;14.29;65.02;96838.50;4939252;29;20376;-80
2021/10/04 06:59:20;;;;;;;;;;;;;;;14.27;64.95;96842.34;4943196;29;19933;-80
2021/10/04 07:01:51;;;;;;;;;;;;;;;14.26;65.17;96843.38;4948344;29;19931;-80
2021/10/04 07:04:20;;;;;;;;;;;;;;;14.25;64.75;96842.53;4950101;29;19986;-80
2021/10/04 07:06:48;;;;;;;;;;;;;;;14.25;65.25;96853.03;4940238;29;19938;-79
2021/10/04 07:19:57;;;;;;;;;;;;;;;14.23;64.97;96868.16;5799439;23;19934;-81
2021/10/04 07:25:27;;;;;;;;;;;;;;;14.14;64.97;96864.13;4979461;28;19933;-81
2021/10/04 07:27:55;;;;;;;;;;;;;;;14.10;65.14;96862.88;4977542;28;19933;-81
2021/10/04 07:30:23;;;;;;;;;;;;;;;14.07;65.47;96868.53;4977458;28;20385;-80
2021/10/04 08:02:30;;;;;;;;;;;;;;;14.02;65.92;96918.97;4956760;29;19927;-81
2021/10/04 08:13:50;;;;;;;;;;;;;;;14.02;65.58;96940.75;4960870;29;19937;-81
2021/10/04 08:20:08;;;;;;;;;;;;;;;14.01;65.98;96944.38;4974618;29;19932;-82
2021/10/04 08:23:29;;;;;;;;;;;;;;;14.00;65.89;96952.44;4970365;29;20007;-81
2021/10/04 08:32:35;;;;;;;;;;;;;;;13.93;66.13;96973.41;4921646;29;19934;-80
2021/10/04 08:43:51;;;;;;;;;;;;;;;13.94;66.49;96948.78;5177577;23;20010;-81
2021/10/04 08:51:49;;;;;;;;;;;;;;;13.96;66.28;96956.47;5102829;23;19933;-79
2021/10/04 08:54:24;;;;;;;;;;;;;;;13.97;66.22;96961.53;4977785;28;19930;-80
2021/10/04 08:56:52;;;;;;;;;;;;;;;13.97;66.55;96958.91;4985576;28;19973;-80
2021/10/04 08:59:20;;;;;;;;;;;;;;;13.98;66.30;96965.75;4987307;28;19926;-80
2021/10/04 09:01:48;;;;;;;;;;;;;;;14.00;66.33;96961.13;4985350;28;19930;-80
2021/10/04 09:04:18;;;;;;;;;;;;;;;14.01;66.68;96965.38;4987909;28;19976;-80
2021/10/04 09:06:48;;;;;;;;;;;;;;;14.01;66.57;96965.38;4982696;28;20295;-80
2021/10/04 09:09:16;;;;;;;;;;;;;;;14.01;66.67;96973.25;4986055;28;19926;-80
2021/10/04 09:11:45;;;;;;;;;;;;;;;13.99;66.44;96977.88;4983098;28;20285;-80
2021/10/04 09:14:15;;;;;;;;;;;;;;;14.01;66.79;96981.13;4988811;28;19926;-80
2021/10/04 09:16:52;;;;;;;;;;;;;;;14.02;66.45;96995.03;4977948;28;20386;-80
2021/10/04 09:19:20;;;;;;;;;;;;;;;14.02;66.90;96982.72;4978998;28;19930;-80
2021/10/04 09:22:02;;;;;;;;;;;;;;;14.05;66.48;96972.84;4978705;28;19937;-80
2021/10/04 09:24:33;;;;;;;;;;;;;;;14.06;66.49;96977.06;4980895;28;19961;-79
2021/10/04 09:27:00;;;;;;;;;;;;;;;14.07;66.79;96971.63;4978674;28;19926;-80
2021/10/04 09:29:46;;;;;;;;;;;;;;;14.09;66.42;96980.13;4987662;28;19927;-80
2021/10/04 09:32:14;;;;;;;;;;;;;;;14.09;66.50;96984.56;4994456;28;19976;-77
2021/10/04 09:34:42;;;;;;;;;;;;;;;14.08;66.83;96986.41;4978452;28;19926;-78
2021/10/04 09:37:10;;;;;;;;;;;;;;;14.06;66.73;96987.56;4978767;28;19937;-77
2021/10/04 09:39:38;;;;;;;;;;;;;;;14.04;66.48;96995.66;4978099;28;19933;-78
2021/10/04 09:42:09;;;;;;;;;;;;;;;14.02;66.67;96987.16;4979084;28;19933;-78
2021/10/04 09:44:57;;;;;;;;;;;;;;;14.01;66.68;97001.25;4978671;28;20394;-78
2021/10/04 09:47:26;;;;;;;;;;;;;;;13.98;67.06;96999.84;4974391;28;19926;-78
2021/10/04 09:49:55;;;;;;;;;;;;;;;13.98;66.79;96999.84;4976712;28;19926;-78
2021/10/04 09:52:44;;;;;;;;;;;;;;;14.01;66.78;96998.63;4977359;28;19996;-78
2021/10/04 09:55:23;;;;;;;;;;;;;;;14.02;66.82;96990.59;4977930;28;19933;-79
2021/10/04 09:58:10;;;;;;;;;;;;;;;14.05;67.04;96997.25;4977128;28;19933;-79
2021/10/04 10:00:39;;;;;;;;;;;;;;;14.05;67.01;97006.94;4977062;28;19926;-79
2021/10/04 10:03:07;;;;;;;;;;;;;;;14.07;67.09;97007.56;4977756;28;19973;-79
2021/10/04 10:05:36;;;;;;;;;;;;;;;14.07;67.13;97004.94;4978862;28;19926;-78
2021/10/04 10:08:05;;;;;;;;;;;;;;;14.07;67.04;97007.56;4976603;28;19933;-77
2021/10/04 10:10:36;;;;;;;;;;;;;;;14.07;67.45;97013.63;4975265;28;19926;-77
2021/10/04 10:13:04;;;;;;;;;;;;;;;14.06;67.04;97024.28;4975176;28;19926;-77
2021/10/04 10:15:33;;;;;;;;;;;;;;;14.07;67.50;97031.16;4975915;28;19926;-78
2021/10/04 10:18:04;;;;;;;;;;;;;;;14.07;67.24;97025.94;4975706;28;19926;-78
2021/10/04 10:20:32;;;;;;;;;;;;;;;14.05;67.60;97018.25;4974966;28;19926;-77
2021/10/04 10:23:00;;;;;;;;;;;;;;;14.04;67.15;97008.75;4974863;28;19934;-77
2021/10/04 10:25:30;;;;;;;;;;;;;;;14.04;67.05;97014.00;4974330;28;19933;-77
2021/10/04 10:27:57;;;;;;;;;;;;;;;14.05;67.27;97017.44;4975986;28;19933;-78
2021/10/04 10:30:26;;;;;;;;;;;;;;;14.04;67.34;97021.03;4975578;28;19926;-77
2021/10/04 10:32:54;;;;;;;;;;;;;;;14.05;67.66;97020.06;4977791;28;19926;-77
2021/10/04 10:35:36;;;;;;;;;;;;;;;14.07;67.46;97007.56;4976938;28;19959;-76
2021/10/04 10:38:04;;;;;;;;;;;;;;;14.10;67.84;97004.53;4972792;28;19941;-77
2021/10/04 10:40:32;;;;;;;;;;;;;;;14.12;67.85;96999.91;4974419;28;19926;-76
2021/10/04 10:43:01;;;;;;;;;;;;;;;14.12;67.76;97002.53;4977851;28;20306;-77
2021/10/04 10:45:38;;;;;;;;;;;;;;;14.12;68.00;97010.41;4980871;28;19934;-77
2021/10/04 10:48:06;;;;;;;;;;;;;;;14.13;67.78;97014.66;4982382;28;19925;-77
2021/10/04 10:50:34;;;;;;;;;;;;;;;14.15;67.77;97017.91;4975625;28;19931;-77
2021/10/04 10:53:04;;;;;;;;;;;;;;;14.16;67.63;97017.69;4975549;28;20393;-77
2021/10/04 10:55:34;;;;;;;;;;;;;;;14.17;67.35;97008.03;4975233;28;19933;-78
2021/10/04 10:58:04;;;;;;;;;;;;;;;14.19;67.27;96998.97;4975368;28;19934;-77
2021/10/04 11:00:33;;;;;;;;;;;;;;;14.20;67.18;96995.31;4976686;28;20390;-78
2021/10/04 11:03:01;;;;;;;;;;;;;;;14.25;67.18;96996.53;4976415;28;19930;-78
2021/10/04 11:05:47;;;;;;;;;;;;;;;14.26;67.10;96998.97;4981196;28;19926;-78
2021/10/04 11:08:15;;;;;;;;;;;;;;;14.28;67.17;96994.34;4991649;28;19926;-79
2021/10/04 11:11:01;;;;;;;;;;;;;;;14.28;66.77;96996.97;4990122;28;19926;-78
2021/10/04 11:13:31;;;;;;;;;;;;;;;14.31;66.85;96993.16;4975394;28;19930;-77
2021/10/04 11:16:00;;;;;;;;;;;;;;;14.32;66.52;96998.22;4976391;28;19926;-78
2021/10/04 11:18:36;;;;;;;;;;;;;;;14.34;66.23;96990.13;4979213;28;19926;-79
2021/10/04 11:21:04;;;;;;;;;;;;;;;14.35;66.20;96995.19;4986788;28;19926;-79
2021/10/04 11:23:31;;;;;;;;;;;;;;;14.38;66.13;96994.78;4976342;28;19926;-77
2021/10/04 11:25:59;;;;;;;;;;;;;;;14.44;66.12;96985.31;4973809;28;19926;-76
2021/10/04 11:28:37;;;;;;;;;;;;;;;14.49;65.65;96988.16;4974396;28;19933;-77
2021/10/04 11:31:06;;;;;;;;;;;;;;;14.54;66.13;96993.66;4974064;28;19926;-78
2021/10/04 11:33:36;;;;;;;;;;;;;;;14.58;65.87;96991.44;4974022;28;19988;-77
2021/10/04 11:36:04;;;;;;;;;;;;;;;14.62;66.08;96988.22;4974727;28;19933;-78
2021/10/04 11:38:33;;;;;;;;;;;;;;;14.67;65.49;96978.94;4973474;28;19926;-78
2021/10/04 11:41:00;;;;;;;;;;;;;;;14.67;65.35;96964.03;4973919;28;19930;-78
2021/10/04 11:43:28;;;;;;;;;;;;;;;14.68;65.00;96983.22;4974374;28;20086;-79
2021/10/04 11:45:57;;;;;;;;;;;;;;;14.68;65.18;96983.22;4974150;28;20386;-78
2021/10/04 11:48:28;;;;;;;;;;;;;;;14.70;65.00;96979.38;4974873;28;19963;-78
2021/10/04 11:50:57;;;;;;;;;;;;;;;14.74;65.33;96985.06;4975549;28;19926;-79
2021/10/04 11:53:24;;;;;;;;;;;;;;;14.77;64.93;96969.69;4975144;28;19927;-79
2021/10/04 11:55:59;;;;;;;;;;;;;;;14.81;64.58;96960.41;4978494;28;19926;-80
2021/10/04 11:58:26;;;;;;;;;;;;;;;14.83;64.54;96945.25;4980464;28;20382;-81
2021/10/04 12:04:40;;;;;;;;;;;;;;;14.91;63.95;96944.28;4980388;28;20106;-81
2021/10/04 12:07:11;;;;;;;;;;;;;;;14.93;63.77;96942.22;4978510;28;20025;-79
2021/10/04 12:09:39;;;;;;;;;;;;;;;14.96;63.61;96948.91;4977115;28;20535;-81
2021/10/04 12:12:16;;;;;;;;;;;;;;;14.96;63.75;96941.03;4989360;28;19933;-81
2021/10/04 12:14:53;;;;;;;;;;;;;;;14.98;63.55;96929.31;4990034;28;20409;-80
2021/10/04 12:17:22;;;;;;;;;;;;;;;15.00;63.84;96934.38;4975112;28;20390;-79
2021/10/04 12:22:28;;;;;;;;;;;;;;;15.02;63.36;96934.97;4988111;23;19934;-78
2021/10/04 12:24:56;;;;;;;;;;;;;;;15.04;63.77;96925.06;4976788;28;20370;-80
2021/10/04 12:27:23;;;;;;;;;;;;;;;15.09;63.60;96935.78;4979982;28;19926;-78
2021/10/04 12:29:57;;;;;;;;;;;;;;;15.11;63.44;96923.25;4981085;28;19926;-81
2021/10/04 12:32:27;;;;;;;;;;;;;;;15.11;63.51;96923.25;4962304;29;19926;-81
2021/10/04 12:35:14;;;;;;;;;;;;;;;15.08;63.21;96926.28;4968373;29;19931;-88
2021/10/04 12:37:47;;;;;;;;;;;;;;;15.06;63.17;96930.13;4952721;29;19933;-83
2021/10/04 12:40:19;;;;;;;;;;;;;;;15.02;62.78;96929.69;4947863;29;19927;-79
2021/10/04 12:42:46;;;;;;;;;;;;;;;14.99;62.94;96915.16;4947512;29;19934;-89
2021/10/04 12:45:14;;;;;;;;;;;;;;;14.98;62.59;96915.38;4947164;29;19927;-83
2021/10/04 12:47:54;;;;;;;;;;;;;;;14.99;62.98;96914.34;4949164;29;19926;-89
2021/10/04 12:50:22;;;;;;;;;;;;;;;15.00;62.72;96910.75;4953828;29;20306;-88
2021/10/04 12:52:50;;;;;;;;;;;;;;;15.02;63.04;96919.19;4967732;28;19931;-86
2021/10/04 12:55:18;;;;;;;;;;;;;;;15.00;63.06;96916.78;4969601;29;19926;-82
2021/10/04 12:57:45;;;;;;;;;;;;;;;15.00;62.92;96906.28;4968161;29;19950;-88
2021/10/04 13:00:13;;;;;;;;;;;;;;;15.03;62.45;96902.44;4967053;29;19926;-84
2021/10/04 13:02:40;;;;;;;;;;;;;;;15.07;62.56;96901.03;4966596;29;19930;-80
2021/10/04 13:05:14;;;;;;;;;;;;;;;15.12;62.85;96903.84;4967515;29;19933;-78
2021/10/04 13:07:41;;;;;;;;;;;;;;;15.19;62.30;96902.00;4966464;29;19942;-83
2021/10/04 13:10:09;;;;;;;;;;;;;;;15.23;61.84;96895.34;4965121;29;19927;-80
2021/10/04 13:12:36;;;;;;;;;;;;;;;15.24;61.75;96891.72;4967075;29;19926;-85
2021/10/04 13:15:08;;;;;;;;;;;;;;;15.28;61.32;96893.94;4966686;29;20017;-83
2021/10/04 13:17:36;;;;;;;;;;;;;;;15.31;61.61;96891.72;4965679;29;19945;-83
2021/10/04 13:20:04;;;;;;;;;;;;;;;15.37;61.47;96887.44;4964835;29;19950;-83
2021/10/04 13:22:32;;;;;;;;;;;;;;;15.41;61.20;96886.84;4955610;29;19930;-85
2021/10/04 13:25:00;;;;;;;;;;;;;;;15.45;61.10;96882.78;4944885;29;19942;-78
2021/10/04 13:27:28;;;;;;;;;;;;;;;15.49;61.23;96893.69;4944331;29;19927;-79
2021/10/04 13:29:56;;;;;;;;;;;;;;;15.52;61.24;96897.72;4943367;29;19927;-82
2021/10/04 13:32:23;;;;;;;;;;;;;;;15.57;61.52;96896.13;4945458;29;19927;-80
2021/10/04 13:34:50;;;;;;;;;;;;;;;15.61;60.87;96889.44;4944392;29;19930;-82
2021/10/04 13:37:18;;;;;;;;;;;;;;;15.64;60.82;96875.06;4943422;29;19927;-82
2021/10/04 13:39:47;;;;;;;;;;;;;;;15.68;60.75;96883.31;4943004;29;19927;-80
2021/10/04 13:42:14;;;;;;;;;;;;;;;15.71;60.77;96877.66;4945493;29;19928;-78
2021/10/04 13:44:42;;;;;;;;;;;;;;;15.76;60.76;96880.50;4965167;29;19926;-79
2021/10/04 13:47:09;;;;;;;;;;;;;;;15.80;60.84;96886.97;4966349;29;19926;-80
2021/10/04 13:49:37;;;;;;;;;;;;;;;15.86;60.38;96886.16;4963495;29;20385;-78
2021/10/04 13:52:04;;;;;;;;;;;;;;;15.90;59.90;96879.47;4964556;29;19930;-79
2021/10/04 13:54:32;;;;;;;;;;;;;;;15.93;59.82;96884.28;4963872;29;19926;-79
2021/10/04 13:57:01;;;;;;;;;;;;;;;15.95;59.68;96884.88;4964315;29;20350;-79
2021/10/04 13:59:28;;;;;;;;;;;;;;;15.98;59.50;96881.84;4964211;29;19926;-82
2021/10/04 14:01:55;;;;;;;;;;;;;;;15.99;59.60;96883.47;4964360;29;19950;-78
2021/10/04 14:04:30;;;;;;;;;;;;;;;16.01;59.59;96881.44;4964145;28;19958;-79
2021/10/04 14:06:57;;;;;;;;;;;;;;;16.04;59.34;96867.84;4963856;29;19926;-82
2021/10/04 14:09:25;;;;;;;;;;;;;;;16.06;59.51;96867.63;4964487;29;20409;-80
2021/10/04 14:11:58;;;;;;;;;;;;;;;16.06;59.30;96859.75;4964213;29;19989;-82
2021/10/04 14:14:27;;;;;;;;;;;;;;;16.05;59.13;96855.50;4962447;29;19934;-80
2021/10/04 14:16:55;;;;;;;;;;;;;;;16.03;59.21;96857.56;4963605;29;20421;-86
2021/10/04 14:19:22;;;;;;;;;;;;;;;16.02;59.38;96859.34;4963631;29;19934;-81
2021/10/04 14:21:50;;;;;;;;;;;;;;;16.00;59.63;96858.75;4959113;29;19933;-81